sensor_id;sensor_type;location;lat;lon;timestamp;P1;durP1;ratioP1;P2;durP2;ratioP2
44784;SDS011;30507;53.160;8.210;2023-04-24T00:00:10;0.38;;;0.38;;
44784;SDS011;30507;53.160;8.210;2023-04-24T00:02:37;0.25;;;0.25;;
44784;SDS011;30507;53.160;8.210;2023-04-24T00:07:30;0.22;;;0.22;;
44784;SDS011;30507;53.160;8.210;2023-04-24T00:09:55;0.30;;;0.30;;
44784;SDS011;30507;53.160;8.210;2023-04-24T00:12:21;0.20;;;0.20;;
44784;SDS011;30507;53.160;8.210;2023-04-24T00:14:46;0.30;;;0.23;;
44784;SDS011;30507;53.160;8.210;2023-04-24T00:17:11;0.30;;;0.30;;
44784;SDS011;30507;53.160;8.210;2023-04-24T00:19:36;0.30;;;0.30;;
44784;SDS011;30507;53.160;8.210;2023-04-24T00:22:02;0.20;;;0.13;;
44784;SDS011;30507;53.160;8.210;2023-04-24T00:24:27;0.20;;;0.20;;
44784;SDS011;30507;53.160;8.210;2023-04-24T00:26:52;0.20;;;0.20;;
44784;SDS011;30507;53.160;8.210;2023-04-24T00:29:17;0.27;;;0.27;;
44784;SDS011;30507;53.160;8.210;2023-04-24T00:31:43;0.10;;;0.10;;
44784;SDS011;30507;53.160;8.210;2023-04-24T00:34:08;0.30;;;0.30;;
44784;SDS011;30507;53.160;8.210;2023-04-24T00:36:33;0.30;;;0.30;;
44784;SDS011;30507;53.160;8.210;2023-04-24T00:38:58;0.30;;;0.20;;
44784;SDS011;30507;53.160;8.210;2023-04-24T00:41:26;0.20;;;0.10;;
44784;SDS011;30507;53.160;8.210;2023-04-24T00:43:52;0.20;;;0.20;;
44784;SDS011;30507;53.160;8.210;2023-04-24T00:46:17;0.13;;;0.13;;
44784;SDS011;30507;53.160;8.210;2023-04-24T00:48:42;0.17;;;0.17;;
44784;SDS011;30507;53.160;8.210;2023-04-24T00:51:08;0.05;;;0.00;;
44784;SDS011;30507;53.160;8.210;2023-04-24T00:53:33;0.10;;;0.10;;
44784;SDS011;30507;53.160;8.210;2023-04-24T00:55:58;0.10;;;0.10;;
44784;SDS011;30507;53.160;8.210;2023-04-24T00:58:24;0.10;;;0.10;;
44784;SDS011;30507;53.160;8.210;2023-04-24T01:00:50;0.20;;;0.20;;
44784;SDS011;30507;53.160;8.210;2023-04-24T01:03:18;0.20;;;0.20;;
44784;SDS011;30507;53.160;8.210;2023-04-24T01:05:43;0.40;;;0.10;;
44784;SDS011;30507;53.160;8.210;2023-04-24T01:08:08;0.17;;;0.10;;
44784;SDS011;30507;53.160;8.210;2023-04-24T01:10:33;0.30;;;0.30;;
44784;SDS011;30507;53.160;8.210;2023-04-24T01:12:59;0.10;;;0.10;;
44784;SDS011;30507;53.160;8.210;2023-04-24T01:15:24;0.10;;;0.10;;
44784;SDS011;30507;53.160;8.210;2023-04-24T01:17:50;1.65;;;0.20;;
44784;SDS011;30507;53.160;8.210;2023-04-24T01:20:15;0.15;;;0.15;;
44784;SDS011;30507;53.160;8.210;2023-04-24T01:22:40;0.10;;;0.10;;
44784;SDS011;30507;53.160;8.210;2023-04-24T01:25:06;0.10;;;0.10;;
44784;SDS011;30507;53.160;8.210;2023-04-24T01:27:31;0.30;;;0.30;;
44784;SDS011;30507;53.160;8.210;2023-04-24T01:29:56;0.10;;;0.10;;
44784;SDS011;30507;53.160;8.210;2023-04-24T01:32:22;0.20;;;0.20;;
44784;SDS011;30507;53.160;8.210;2023-04-24T01:34:47;0.17;;;0.17;;
44784;SDS011;30507;53.160;8.210;2023-04-24T01:37:13;0.10;;;0.10;;
44784;SDS011;30507;53.160;8.210;2023-04-24T01:39:38;0.10;;;0.10;;
44784;SDS011;30507;53.160;8.210;2023-04-24T01:42:04;0.13;;;0.13;;
44784;SDS011;30507;53.160;8.210;2023-04-24T01:44:29;0.22;;;0.22;;
44784;SDS011;30507;53.160;8.210;2023-04-24T01:46:55;0.10;;;0.10;;
44784;SDS011;30507;53.160;8.210;2023-04-24T01:49:20;0.20;;;0.10;;
44784;SDS011;30507;53.160;8.210;2023-04-24T01:51:45;0.10;;;0.10;;
44784;SDS011;30507;53.160;8.210;2023-04-24T01:54:11;0.52;;;0.10;;
44784;SDS011;30507;53.160;8.210;2023-04-24T01:56:36;0.20;;;0.20;;
44784;SDS011;30507;53.160;8.210;2023-04-24T01:59:04;0.00;;;0.00;;
44784;SDS011;30507;53.160;8.210;2023-04-24T02:01:33;0.17;;;0.17;;
44784;SDS011;30507;53.160;8.210;2023-04-24T02:03:58;0.10;;;0.10;;
44784;SDS011;30507;53.160;8.210;2023-04-24T02:06:24;0.00;;;0.00;;
44784;SDS011;30507;53.160;8.210;2023-04-24T02:08:49;0.10;;;0.10;;
44784;SDS011;30507;53.160;8.210;2023-04-24T02:11:14;0.00;;;0.00;;
44784;SDS011;30507;53.160;8.210;2023-04-24T02:13:39;0.10;;;0.10;;
44784;SDS011;30507;53.160;8.210;2023-04-24T02:16:05;0.10;;;0.10;;
44784;SDS011;30507;53.160;8.210;2023-04-24T02:18:30;0.32;;;0.20;;
44784;SDS011;30507;53.160;8.210;2023-04-24T02:20:55;0.10;;;0.10;;
44784;SDS011;30507;53.160;8.210;2023-04-24T02:23:20;0.10;;;0.10;;
44784;SDS011;30507;53.160;8.210;2023-04-24T02:25:45;0.00;;;0.00;;
44784;SDS011;30507;53.160;8.210;2023-04-24T02:28:10;0.00;;;0.00;;
44784;SDS011;30507;53.160;8.210;2023-04-24T02:30:36;0.10;;;0.10;;
44784;SDS011;30507;53.160;8.210;2023-04-24T02:33:01;0.13;;;0.13;;
44784;SDS011;30507;53.160;8.210;2023-04-24T02:35:26;0.17;;;0.10;;
44784;SDS011;30507;53.160;8.210;2023-04-24T02:37:51;0.10;;;0.10;;
44784;SDS011;30507;53.160;8.210;2023-04-24T02:40:16;0.38;;;0.10;;
44784;SDS011;30507;53.160;8.210;2023-04-24T02:42:41;0.03;;;0.03;;
44784;SDS011;30507;53.160;8.210;2023-04-24T02:45:07;0.10;;;0.10;;
44784;SDS011;30507;53.160;8.210;2023-04-24T02:47:32;0.00;;;0.00;;
44784;SDS011;30507;53.160;8.210;2023-04-24T02:49:57;0.10;;;0.10;;
44784;SDS011;30507;53.160;8.210;2023-04-24T02:52:22;0.20;;;0.20;;
44784;SDS011;30507;53.160;8.210;2023-04-24T02:54:47;0.10;;;0.10;;
44784;SDS011;30507;53.160;8.210;2023-04-24T02:57:13;0.10;;;0.10;;
44784;SDS011;30507;53.160;8.210;2023-04-24T02:59:38;0.10;;;0.10;;
44784;SDS011;30507;53.160;8.210;2023-04-24T03:02:03;0.17;;;0.17;;
44784;SDS011;30507;53.160;8.210;2023-04-24T03:04:28;0.10;;;0.10;;
44784;SDS011;30507;53.160;8.210;2023-04-24T03:06:53;0.10;;;0.10;;
44784;SDS011;30507;53.160;8.210;2023-04-24T03:09:19;0.20;;;0.20;;
44784;SDS011;30507;53.160;8.210;2023-04-24T03:11:45;0.13;;;0.13;;
44784;SDS011;30507;53.160;8.210;2023-04-24T03:14:10;0.10;;;0.10;;
44784;SDS011;30507;53.160;8.210;2023-04-24T03:16:35;0.20;;;0.20;;
44784;SDS011;30507;53.160;8.210;2023-04-24T03:19:00;0.10;;;0.10;;
44784;SDS011;30507;53.160;8.210;2023-04-24T03:21:25;0.20;;;0.20;;
44784;SDS011;30507;53.160;8.210;2023-04-24T03:23:51;0.10;;;0.10;;
44784;SDS011;30507;53.160;8.210;2023-04-24T03:26:16;0.17;;;0.17;;
44784;SDS011;30507;53.160;8.210;2023-04-24T03:28:41;0.43;;;0.30;;
44784;SDS011;30507;53.160;8.210;2023-04-24T03:31:07;0.17;;;0.17;;
44784;SDS011;30507;53.160;8.210;2023-04-24T03:33:32;0.20;;;0.20;;
44784;SDS011;30507;53.160;8.210;2023-04-24T03:35:57;0.20;;;0.20;;
44784;SDS011;30507;53.160;8.210;2023-04-24T03:38:22;0.20;;;0.20;;
44784;SDS011;30507;53.160;8.210;2023-04-24T03:40:47;0.10;;;0.10;;
44784;SDS011;30507;53.160;8.210;2023-04-24T03:43:12;0.10;;;0.10;;
44784;SDS011;30507;53.160;8.210;2023-04-24T03:45:38;0.10;;;0.10;;
44784;SDS011;30507;53.160;8.210;2023-04-24T03:48:03;0.10;;;0.10;;
44784;SDS011;30507;53.160;8.210;2023-04-24T03:50:28;0.20;;;0.20;;
44784;SDS011;30507;53.160;8.210;2023-04-24T03:52:54;0.20;;;0.20;;
44784;SDS011;30507;53.160;8.210;2023-04-24T03:55:19;0.10;;;0.10;;
44784;SDS011;30507;53.160;8.210;2023-04-24T03:57:44;0.13;;;0.13;;
44784;SDS011;30507;53.160;8.210;2023-04-24T04:00:10;0.53;;;0.30;;
44784;SDS011;30507;53.160;8.210;2023-04-24T04:02:35;0.20;;;0.20;;
44784;SDS011;30507;53.160;8.210;2023-04-24T04:05:00;0.17;;;0.10;;
44784;SDS011;30507;53.160;8.210;2023-04-24T04:07:25;0.05;;;0.05;;
44784;SDS011;30507;53.160;8.210;2023-04-24T04:09:50;0.20;;;0.20;;
44784;SDS011;30507;53.160;8.210;2023-04-24T04:12:16;0.20;;;0.20;;
44784;SDS011;30507;53.160;8.210;2023-04-24T04:14:41;0.10;;;0.10;;
44784;SDS011;30507;53.160;8.210;2023-04-24T04:17:06;0.30;;;0.30;;
44784;SDS011;30507;53.160;8.210;2023-04-24T04:19:31;0.30;;;0.30;;
44784;SDS011;30507;53.160;8.210;2023-04-24T04:21:56;0.28;;;0.28;;
44784;SDS011;30507;53.160;8.210;2023-04-24T04:24:21;0.20;;;0.20;;
44784;SDS011;30507;53.160;8.210;2023-04-24T04:26:47;0.20;;;0.20;;
44784;SDS011;30507;53.160;8.210;2023-04-24T04:29:13;0.13;;;0.13;;
44784;SDS011;30507;53.160;8.210;2023-04-24T04:31:38;0.10;;;0.10;;
44784;SDS011;30507;53.160;8.210;2023-04-24T04:34:03;0.10;;;0.10;;
44784;SDS011;30507;53.160;8.210;2023-04-24T04:36:28;0.10;;;0.10;;
44784;SDS011;30507;53.160;8.210;2023-04-24T04:38:54;0.13;;;0.13;;
44784;SDS011;30507;53.160;8.210;2023-04-24T04:41:19;0.13;;;0.13;;
44784;SDS011;30507;53.160;8.210;2023-04-24T04:43:45;0.10;;;0.10;;
44784;SDS011;30507;53.160;8.210;2023-04-24T04:46:11;0.10;;;0.10;;
44784;SDS011;30507;53.160;8.210;2023-04-24T04:48:36;0.05;;;0.05;;
44784;SDS011;30507;53.160;8.210;2023-04-24T04:51:02;1.30;;;0.20;;
44784;SDS011;30507;53.160;8.210;2023-04-24T04:53:27;0.20;;;0.20;;
44784;SDS011;30507;53.160;8.210;2023-04-24T04:55:52;0.23;;;0.23;;
44784;SDS011;30507;53.160;8.210;2023-04-24T04:58:17;0.10;;;0.10;;
44784;SDS011;30507;53.160;8.210;2023-04-24T05:00:42;0.20;;;0.20;;
44784;SDS011;30507;53.160;8.210;2023-04-24T05:03:08;1.70;;;0.27;;
44784;SDS011;30507;53.160;8.210;2023-04-24T05:05:33;0.52;;;0.20;;
44784;SDS011;30507;53.160;8.210;2023-04-24T05:07:58;0.33;;;0.33;;
44784;SDS011;30507;53.160;8.210;2023-04-24T05:10:23;0.30;;;0.30;;
44784;SDS011;30507;53.160;8.210;2023-04-24T05:12:48;2.00;;;0.47;;
44784;SDS011;30507;53.160;8.210;2023-04-24T05:15:14;3.00;;;0.60;;
44784;SDS011;30507;53.160;8.210;2023-04-24T05:17:39;2.20;;;0.50;;
44784;SDS011;30507;53.160;8.210;2023-04-24T05:20:05;1.35;;;0.75;;
44784;SDS011;30507;53.160;8.210;2023-04-24T05:22:31;0.63;;;0.63;;
44784;SDS011;30507;53.160;8.210;2023-04-24T05:24:56;2.60;;;0.70;;
44784;SDS011;30507;53.160;8.210;2023-04-24T05:27:21;0.52;;;0.28;;
44784;SDS011;30507;53.160;8.210;2023-04-24T05:29:46;2.13;;;0.60;;
44784;SDS011;30507;53.160;8.210;2023-04-24T05:32:11;0.70;;;0.40;;
44784;SDS011;30507;53.160;8.210;2023-04-24T05:34:36;4.10;;;0.95;;
44784;SDS011;30507;53.160;8.210;2023-04-24T05:37:02;0.50;;;0.50;;
44784;SDS011;30507;53.160;8.210;2023-04-24T05:39:27;3.40;;;0.50;;
44784;SDS011;30507;53.160;8.210;2023-04-24T05:41:53;0.77;;;0.47;;
44784;SDS011;30507;53.160;8.210;2023-04-24T05:44:18;1.33;;;0.50;;
44784;SDS011;30507;53.160;8.210;2023-04-24T05:46:43;2.17;;;0.60;;
44784;SDS011;30507;53.160;8.210;2023-04-24T05:49:08;4.20;;;0.88;;
44784;SDS011;30507;53.160;8.210;2023-04-24T05:51:33;2.10;;;0.40;;
44784;SDS011;30507;53.160;8.210;2023-04-24T05:53:58;2.30;;;0.87;;
44784;SDS011;30507;53.160;8.210;2023-04-24T05:56:24;1.00;;;0.40;;
44784;SDS011;30507;53.160;8.210;2023-04-24T05:58:49;2.67;;;0.50;;
44784;SDS011;30507;53.160;8.210;2023-04-24T06:01:14;2.10;;;0.50;;
44784;SDS011;30507;53.160;8.210;2023-04-24T06:03:42;1.88;;;0.50;;
44784;SDS011;30507;53.160;8.210;2023-04-24T06:06:08;3.25;;;0.90;;
44784;SDS011;30507;53.160;8.210;2023-04-24T06:08:34;0.60;;;0.40;;
44784;SDS011;30507;53.160;8.210;2023-04-24T06:10:59;2.40;;;0.50;;
44784;SDS011;30507;53.160;8.210;2023-04-24T06:13:24;1.50;;;0.63;;
44784;SDS011;30507;53.160;8.210;2023-04-24T06:15:49;2.20;;;0.80;;
44784;SDS011;30507;53.160;8.210;2023-04-24T06:18:15;2.67;;;0.60;;
44784;SDS011;30507;53.160;8.210;2023-04-24T06:20:40;0.63;;;0.50;;
44784;SDS011;30507;53.160;8.210;2023-04-24T06:23:05;2.00;;;0.60;;
44784;SDS011;30507;53.160;8.210;2023-04-24T06:25:30;0.93;;;0.60;;
44784;SDS011;30507;53.160;8.210;2023-04-24T06:27:55;0.60;;;0.60;;
44784;SDS011;30507;53.160;8.210;2023-04-24T06:30:21;1.27;;;1.15;;
44784;SDS011;30507;53.160;8.210;2023-04-24T06:32:46;4.70;;;0.60;;
44784;SDS011;30507;53.160;8.210;2023-04-24T06:35:11;1.30;;;0.98;;
44784;SDS011;30507;53.160;8.210;2023-04-24T06:37:38;1.02;;;0.93;;
44784;SDS011;30507;53.160;8.210;2023-04-24T06:40:03;1.08;;;0.88;;
44784;SDS011;30507;53.160;8.210;2023-04-24T06:42:29;1.23;;;0.55;;
44784;SDS011;30507;53.160;8.210;2023-04-24T06:44:54;1.13;;;1.02;;
44784;SDS011;30507;53.160;8.210;2023-04-24T06:47:19;3.10;;;1.37;;
44784;SDS011;30507;53.160;8.210;2023-04-24T06:49:44;0.67;;;0.60;;
44784;SDS011;30507;53.160;8.210;2023-04-24T06:52:09;3.13;;;0.60;;
44784;SDS011;30507;53.160;8.210;2023-04-24T06:54:35;4.57;;;0.73;;
44784;SDS011;30507;53.160;8.210;2023-04-24T06:57:00;1.90;;;0.60;;
44784;SDS011;30507;53.160;8.210;2023-04-24T06:59:26;2.15;;;0.65;;
44784;SDS011;30507;53.160;8.210;2023-04-24T07:01:51;0.43;;;0.30;;
44784;SDS011;30507;53.160;8.210;2023-04-24T07:04:16;1.40;;;0.50;;
44784;SDS011;30507;53.160;8.210;2023-04-24T07:06:41;2.78;;;1.42;;
44784;SDS011;30507;53.160;8.210;2023-04-24T07:09:07;0.60;;;0.50;;
44784;SDS011;30507;53.160;8.210;2023-04-24T07:11:35;0.52;;;0.50;;
44784;SDS011;30507;53.160;8.210;2023-04-24T07:14:01;0.70;;;0.40;;
44784;SDS011;30507;53.160;8.210;2023-04-24T07:16:26;1.13;;;1.03;;
44784;SDS011;30507;53.160;8.210;2023-04-24T07:18:52;0.40;;;0.40;;
44784;SDS011;30507;53.160;8.210;2023-04-24T07:21:17;0.30;;;0.30;;
44784;SDS011;30507;53.160;8.210;2023-04-24T07:23:42;1.45;;;0.75;;
44784;SDS011;30507;53.160;8.210;2023-04-24T07:26:07;1.00;;;0.60;;
44784;SDS011;30507;53.160;8.210;2023-04-24T07:28:32;0.70;;;0.70;;
44784;SDS011;30507;53.160;8.210;2023-04-24T07:30:57;0.57;;;0.57;;
44784;SDS011;30507;53.160;8.210;2023-04-24T07:33:23;0.70;;;0.70;;
44784;SDS011;30507;53.160;8.210;2023-04-24T07:35:48;0.60;;;0.60;;
44784;SDS011;30507;53.160;8.210;2023-04-24T07:38:14;0.50;;;0.50;;
44784;SDS011;30507;53.160;8.210;2023-04-24T07:40:39;0.77;;;0.50;;
44784;SDS011;30507;53.160;8.210;2023-04-24T07:43:04;1.43;;;0.60;;
44784;SDS011;30507;53.160;8.210;2023-04-24T07:45:29;0.50;;;0.50;;
44784;SDS011;30507;53.160;8.210;2023-04-24T07:47:56;0.50;;;0.50;;
44784;SDS011;30507;53.160;8.210;2023-04-24T07:50:21;0.30;;;0.30;;
44784;SDS011;30507;53.160;8.210;2023-04-24T07:52:46;0.43;;;0.40;;
44784;SDS011;30507;53.160;8.210;2023-04-24T07:55:12;0.68;;;0.43;;
44784;SDS011;30507;53.160;8.210;2023-04-24T07:57:37;1.08;;;0.75;;
44784;SDS011;30507;53.160;8.210;2023-04-24T08:00:03;1.27;;;0.50;;
44784;SDS011;30507;53.160;8.210;2023-04-24T08:02:28;1.45;;;0.50;;
44784;SDS011;30507;53.160;8.210;2023-04-24T08:04:54;0.98;;;0.88;;
44784;SDS011;30507;53.160;8.210;2023-04-24T08:07:19;0.50;;;0.40;;
44784;SDS011;30507;53.160;8.210;2023-04-24T08:09:44;0.32;;;0.32;;
44784;SDS011;30507;53.160;8.210;2023-04-24T08:12:09;1.23;;;0.68;;
44784;SDS011;30507;53.160;8.210;2023-04-24T08:14:34;0.52;;;0.52;;
44784;SDS011;30507;53.160;8.210;2023-04-24T08:17:00;0.30;;;0.30;;
44784;SDS011;30507;53.160;8.210;2023-04-24T08:19:26;0.73;;;0.55;;
44784;SDS011;30507;53.160;8.210;2023-04-24T08:21:51;0.55;;;0.40;;
44784;SDS011;30507;53.160;8.210;2023-04-24T08:24:16;0.55;;;0.40;;
44784;SDS011;30507;53.160;8.210;2023-04-24T08:26:41;0.40;;;0.40;;
44784;SDS011;30507;53.160;8.210;2023-04-24T08:29:06;0.57;;;0.57;;
44784;SDS011;30507;53.160;8.210;2023-04-24T08:31:32;0.43;;;0.40;;
44784;SDS011;30507;53.160;8.210;2023-04-24T08:33:57;0.65;;;0.57;;
44784;SDS011;30507;53.160;8.210;2023-04-24T08:36:22;0.30;;;0.30;;
44784;SDS011;30507;53.160;8.210;2023-04-24T08:38:47;0.53;;;0.53;;
44784;SDS011;30507;53.160;8.210;2023-04-24T08:41:13;0.47;;;0.47;;
44784;SDS011;30507;53.160;8.210;2023-04-24T08:43:39;0.47;;;0.30;;
44784;SDS011;30507;53.160;8.210;2023-04-24T08:46:04;0.45;;;0.45;;
44784;SDS011;30507;53.160;8.210;2023-04-24T08:48:30;0.40;;;0.40;;
44784;SDS011;30507;53.160;8.210;2023-04-24T08:50:56;0.40;;;0.40;;
44784;SDS011;30507;53.160;8.210;2023-04-24T08:53:21;0.43;;;0.43;;
44784;SDS011;30507;53.160;8.210;2023-04-24T08:55:47;0.63;;;0.63;;
44784;SDS011;30507;53.160;8.210;2023-04-24T08:58:13;0.60;;;0.55;;
44784;SDS011;30507;53.160;8.210;2023-04-24T09:00:39;1.17;;;0.40;;
44784;SDS011;30507;53.160;8.210;2023-04-24T09:03:04;0.57;;;0.30;;
44784;SDS011;30507;53.160;8.210;2023-04-24T09:05:30;0.63;;;0.57;;
44784;SDS011;30507;53.160;8.210;2023-04-24T09:07:56;0.37;;;0.33;;
44784;SDS011;30507;53.160;8.210;2023-04-24T09:10:22;0.50;;;0.50;;
44784;SDS011;30507;53.160;8.210;2023-04-24T09:12:48;0.40;;;0.35;;
44784;SDS011;30507;53.160;8.210;2023-04-24T09:15:14;0.30;;;0.30;;
44784;SDS011;30507;53.160;8.210;2023-04-24T09:17:40;0.20;;;0.20;;
44784;SDS011;30507;53.160;8.210;2023-04-24T09:20:05;0.47;;;0.37;;
44784;SDS011;30507;53.160;8.210;2023-04-24T09:22:30;0.22;;;0.22;;
44784;SDS011;30507;53.160;8.210;2023-04-24T09:25:02;0.95;;;0.40;;
44784;SDS011;30507;53.160;8.210;2023-04-24T09:27:28;0.38;;;0.38;;
44784;SDS011;30507;53.160;8.210;2023-04-24T09:29:56;0.30;;;0.30;;
44784;SDS011;30507;53.160;8.210;2023-04-24T09:32:22;0.30;;;0.30;;
44784;SDS011;30507;53.160;8.210;2023-04-24T09:34:49;0.30;;;0.30;;
44784;SDS011;30507;53.160;8.210;2023-04-24T09:37:28;0.32;;;0.32;;
44784;SDS011;30507;53.160;8.210;2023-04-24T09:40:10;0.20;;;0.20;;
44784;SDS011;30507;53.160;8.210;2023-04-24T09:42:39;0.30;;;0.30;;
44784;SDS011;30507;53.160;8.210;2023-04-24T09:45:08;0.25;;;0.25;;
44784;SDS011;30507;53.160;8.210;2023-04-24T09:47:37;0.40;;;0.30;;
44784;SDS011;30507;53.160;8.210;2023-04-24T09:52:39;0.25;;;0.25;;
44784;SDS011;30507;53.160;8.210;2023-04-24T09:55:10;0.30;;;0.30;;
44784;SDS011;30507;53.160;8.210;2023-04-24T09:57:35;0.25;;;0.25;;
44784;SDS011;30507;53.160;8.210;2023-04-24T10:00:01;0.20;;;0.20;;
44784;SDS011;30507;53.160;8.210;2023-04-24T10:02:26;0.30;;;0.30;;
44784;SDS011;30507;53.160;8.210;2023-04-24T10:04:55;0.30;;;0.30;;
44784;SDS011;30507;53.160;8.210;2023-04-24T10:07:21;0.40;;;0.40;;
44784;SDS011;30507;53.160;8.210;2023-04-24T10:09:46;0.30;;;0.30;;
44784;SDS011;30507;53.160;8.210;2023-04-24T10:12:11;0.67;;;0.60;;
44784;SDS011;30507;53.160;8.210;2023-04-24T10:14:37;0.65;;;0.65;;
44784;SDS011;30507;53.160;8.210;2023-04-24T10:17:02;0.20;;;0.20;;
44784;SDS011;30507;53.160;8.210;2023-04-24T10:19:28;0.63;;;0.50;;
44784;SDS011;30507;53.160;8.210;2023-04-24T10:21:54;1.48;;;0.25;;
44784;SDS011;30507;53.160;8.210;2023-04-24T10:24:21;0.30;;;0.30;;
44784;SDS011;30507;53.160;8.210;2023-04-24T10:26:46;0.40;;;0.40;;
44784;SDS011;30507;53.160;8.210;2023-04-24T10:29:13;0.60;;;0.40;;
44784;SDS011;30507;53.160;8.210;2023-04-24T10:31:40;0.40;;;0.40;;
44784;SDS011;30507;53.160;8.210;2023-04-24T10:34:05;0.30;;;0.30;;
44784;SDS011;30507;53.160;8.210;2023-04-24T10:36:31;0.30;;;0.30;;
44784;SDS011;30507;53.160;8.210;2023-04-24T10:38:57;0.35;;;0.35;;
44784;SDS011;30507;53.160;8.210;2023-04-24T10:41:24;0.15;;;0.15;;
44784;SDS011;30507;53.160;8.210;2023-04-24T10:46:31;0.43;;;0.20;;
44784;SDS011;30507;53.160;8.210;2023-04-24T10:48:56;0.73;;;0.50;;
44784;SDS011;30507;53.160;8.210;2023-04-24T10:51:23;0.30;;;0.20;;
44784;SDS011;30507;53.160;8.210;2023-04-24T10:53:51;0.30;;;0.30;;
44784;SDS011;30507;53.160;8.210;2023-04-24T10:58:43;0.52;;;0.30;;
44784;SDS011;30507;53.160;8.210;2023-04-24T11:01:30;0.20;;;0.20;;
44784;SDS011;30507;53.160;8.210;2023-04-24T11:03:59;0.30;;;0.20;;
44784;SDS011;30507;53.160;8.210;2023-04-24T11:06:28;0.60;;;0.30;;
44784;SDS011;30507;53.160;8.210;2023-04-24T11:08:58;0.40;;;0.40;;
44784;SDS011;30507;53.160;8.210;2023-04-24T11:11:28;0.20;;;0.20;;
44784;SDS011;30507;53.160;8.210;2023-04-24T11:18:50;0.10;;;0.10;;
44784;SDS011;30507;53.160;8.210;2023-04-24T11:21:18;0.45;;;0.17;;
44784;SDS011;30507;53.160;8.210;2023-04-24T11:23:43;0.10;;;0.10;;
44784;SDS011;30507;53.160;8.210;2023-04-24T11:26:09;0.20;;;0.20;;
44784;SDS011;30507;53.160;8.210;2023-04-24T11:28:35;0.40;;;0.30;;
44784;SDS011;30507;53.160;8.210;2023-04-24T11:31:33;0.10;;;0.10;;
44784;SDS011;30507;53.160;8.210;2023-04-24T11:33:45;0.20;;;0.20;;
44784;SDS011;30507;53.160;8.210;2023-04-24T11:36:11;0.10;;;0.10;;
44784;SDS011;30507;53.160;8.210;2023-04-24T11:38:36;0.10;;;0.10;;
44784;SDS011;30507;53.160;8.210;2023-04-24T11:41:01;0.30;;;0.30;;
44784;SDS011;30507;53.160;8.210;2023-04-24T11:43:28;0.25;;;0.25;;
44784;SDS011;30507;53.160;8.210;2023-04-24T11:45:55;0.20;;;0.20;;
44784;SDS011;30507;53.160;8.210;2023-04-24T11:48:24;0.40;;;0.40;;
44784;SDS011;30507;53.160;8.210;2023-04-24T11:50:49;0.10;;;0.10;;
44784;SDS011;30507;53.160;8.210;2023-04-24T11:53:14;0.57;;;0.20;;
44784;SDS011;30507;53.160;8.210;2023-04-24T11:55:39;0.40;;;0.40;;
44784;SDS011;30507;53.160;8.210;2023-04-24T11:58:05;0.10;;;0.10;;
44784;SDS011;30507;53.160;8.210;2023-04-24T12:00:31;0.15;;;0.10;;
44784;SDS011;30507;53.160;8.210;2023-04-24T12:03:09;0.10;;;0.10;;
44784;SDS011;30507;53.160;8.210;2023-04-24T12:05:35;0.17;;;0.17;;
44784;SDS011;30507;53.160;8.210;2023-04-24T12:08:00;0.30;;;0.20;;
44784;SDS011;30507;53.160;8.210;2023-04-24T12:10:26;0.10;;;0.10;;
44784;SDS011;30507;53.160;8.210;2023-04-24T12:12:52;0.15;;;0.15;;
44784;SDS011;30507;53.160;8.210;2023-04-24T12:15:18;0.70;;;0.40;;
44784;SDS011;30507;53.160;8.210;2023-04-24T12:17:43;0.20;;;0.20;;
44784;SDS011;30507;53.160;8.210;2023-04-24T12:20:09;0.30;;;0.30;;
44784;SDS011;30507;53.160;8.210;2023-04-24T12:25:18;0.30;;;0.30;;
44784;SDS011;30507;53.160;8.210;2023-04-24T12:27:44;0.30;;;0.30;;
44784;SDS011;30507;53.160;8.210;2023-04-24T12:30:10;0.43;;;0.43;;
44784;SDS011;30507;53.160;8.210;2023-04-24T12:32:40;0.50;;;0.30;;
44784;SDS011;30507;53.160;8.210;2023-04-24T12:35:05;0.30;;;0.30;;
44784;SDS011;30507;53.160;8.210;2023-04-24T12:37:32;0.30;;;0.30;;
44784;SDS011;30507;53.160;8.210;2023-04-24T12:40:01;0.32;;;0.30;;
44784;SDS011;30507;53.160;8.210;2023-04-24T12:42:27;0.20;;;0.20;;
44784;SDS011;30507;53.160;8.210;2023-04-24T12:44:56;0.30;;;0.30;;
44784;SDS011;30507;53.160;8.210;2023-04-24T12:49:46;0.50;;;0.38;;
44784;SDS011;30507;53.160;8.210;2023-04-24T12:52:11;0.30;;;0.30;;
44784;SDS011;30507;53.160;8.210;2023-04-24T12:54:36;0.20;;;0.20;;
44784;SDS011;30507;53.160;8.210;2023-04-24T12:57:01;0.50;;;0.50;;
44784;SDS011;30507;53.160;8.210;2023-04-24T12:59:27;0.30;;;0.30;;
44784;SDS011;30507;53.160;8.210;2023-04-24T13:01:52;0.20;;;0.20;;
44784;SDS011;30507;53.160;8.210;2023-04-24T13:04:17;1.58;;;0.45;;
44784;SDS011;30507;53.160;8.210;2023-04-24T13:06:42;2.20;;;0.30;;
44784;SDS011;30507;53.160;8.210;2023-04-24T13:09:07;1.60;;;0.28;;
44784;SDS011;30507;53.160;8.210;2023-04-24T13:11:32;0.47;;;0.40;;
44784;SDS011;30507;53.160;8.210;2023-04-24T13:13:58;0.53;;;0.43;;
44784;SDS011;30507;53.160;8.210;2023-04-24T13:16:23;0.30;;;0.30;;
44784;SDS011;30507;53.160;8.210;2023-04-24T13:18:48;0.57;;;0.40;;
44784;SDS011;30507;53.160;8.210;2023-04-24T13:21:13;0.47;;;0.45;;
44784;SDS011;30507;53.160;8.210;2023-04-24T13:23:38;0.63;;;0.30;;
44784;SDS011;30507;53.160;8.210;2023-04-24T13:26:03;0.50;;;0.50;;
44784;SDS011;30507;53.160;8.210;2023-04-24T13:28:29;0.63;;;0.43;;
44784;SDS011;30507;53.160;8.210;2023-04-24T13:30:55;0.32;;;0.32;;
44784;SDS011;30507;53.160;8.210;2023-04-24T13:33:20;0.53;;;0.53;;
44784;SDS011;30507;53.160;8.210;2023-04-24T13:35:45;0.40;;;0.30;;
44784;SDS011;30507;53.160;8.210;2023-04-24T13:38:10;3.10;;;0.43;;
44784;SDS011;30507;53.160;8.210;2023-04-24T13:40:35;0.40;;;0.40;;
44784;SDS011;30507;53.160;8.210;2023-04-24T13:43:01;0.50;;;0.38;;
44784;SDS011;30507;53.160;8.210;2023-04-24T13:45:26;2.00;;;0.40;;
44784;SDS011;30507;53.160;8.210;2023-04-24T13:47:51;0.37;;;0.37;;
44784;SDS011;30507;53.160;8.210;2023-04-24T13:50:17;0.30;;;0.30;;
44784;SDS011;30507;53.160;8.210;2023-04-24T13:52:42;0.50;;;0.40;;
44784;SDS011;30507;53.160;8.210;2023-04-24T13:55:07;0.93;;;0.50;;
44784;SDS011;30507;53.160;8.210;2023-04-24T13:57:32;0.50;;;0.37;;
44784;SDS011;30507;53.160;8.210;2023-04-24T13:59:58;3.40;;;0.93;;
44784;SDS011;30507;53.160;8.210;2023-04-24T14:02:27;0.30;;;0.30;;
44784;SDS011;30507;53.160;8.210;2023-04-24T14:04:52;0.68;;;0.50;;
44784;SDS011;30507;53.160;8.210;2023-04-24T14:07:17;0.30;;;0.30;;
44784;SDS011;30507;53.160;8.210;2023-04-24T14:09:42;0.35;;;0.35;;
44784;SDS011;30507;53.160;8.210;2023-04-24T14:12:08;0.80;;;0.30;;
44784;SDS011;30507;53.160;8.210;2023-04-24T14:14:33;0.43;;;0.43;;
44784;SDS011;30507;53.160;8.210;2023-04-24T14:16:58;1.27;;;0.20;;
44784;SDS011;30507;53.160;8.210;2023-04-24T14:19:23;1.50;;;0.97;;
44784;SDS011;30507;53.160;8.210;2023-04-24T14:21:49;1.60;;;0.80;;
44784;SDS011;30507;53.160;8.210;2023-04-24T14:24:14;0.68;;;0.30;;
44784;SDS011;30507;53.160;8.210;2023-04-24T14:26:39;0.77;;;0.40;;
44784;SDS011;30507;53.160;8.210;2023-04-24T14:29:04;1.10;;;0.87;;
44784;SDS011;30507;53.160;8.210;2023-04-24T14:31:30;1.27;;;0.60;;
44784;SDS011;30507;53.160;8.210;2023-04-24T14:33:55;1.57;;;0.30;;
44784;SDS011;30507;53.160;8.210;2023-04-24T14:36:20;5.40;;;0.50;;
44784;SDS011;30507;53.160;8.210;2023-04-24T14:38:45;1.50;;;0.50;;
44784;SDS011;30507;53.160;8.210;2023-04-24T14:41:10;0.47;;;0.43;;
44784;SDS011;30507;53.160;8.210;2023-04-24T14:43:36;3.05;;;0.70;;
44784;SDS011;30507;53.160;8.210;2023-04-24T14:46:02;0.73;;;0.40;;
44784;SDS011;30507;53.160;8.210;2023-04-24T14:48:27;2.33;;;0.80;;
44784;SDS011;30507;53.160;8.210;2023-04-24T14:50:53;3.55;;;1.35;;
44784;SDS011;30507;53.160;8.210;2023-04-24T14:53:18;0.82;;;0.70;;
44784;SDS011;30507;53.160;8.210;2023-04-24T14:55:43;2.22;;;0.90;;
44784;SDS011;30507;53.160;8.210;2023-04-24T14:58:09;0.90;;;0.40;;